Time;durP1;ratioP1;P1;durP2;ratioP2;P2;SDS_P1;SDS_P2;PMS_P1;PMS_P2;Temp;Humidity;BMP_temperature;BMP_pressure;BME280_temperature;BME280_humidity;BME280_pressure;Samples;Min_cycle;Max_cycle;Signal;HPM_P1;HPM_P2
2023/02/13 00:00:50;;;;;;;;;;;;;;;3.23;91.18;101974.31;1084602;54;19970;-79
2023/02/13 00:01:54;;;;;;;;;;;;;;;3.23;91.43;101963.75;1084473;54;19950;-78
2023/02/13 00:02:55;;;;;;;;;;;;;;;3.15;91.95;101969.25;1084354;54;19946;-78
2023/02/13 00:03:58;;;;;;;;;;;;;;;3.16;92.05;101965.72;1084684;54;19958;-80
2023/02/13 00:04:59;;;;;;;;;;;;;;;3.12;92.26;101961.41;1084999;54;19950;-79
2023/02/13 00:06:07;;;;;;;;;;;;;;;3.10;92.81;101963.28;1085147;54;19950;-79
2023/02/13 00:07:08;;;;;;;;;;;;;;;3.17;92.55;101972.72;1085796;54;19950;-79
2023/02/13 00:08:12;;;;;;;;;;;;;;;3.14;92.58;101961.41;1085928;54;19994;-80
2023/02/13 00:09:14;;;;;;;;;;;;;;;3.12;92.83;101962.31;1085073;54;19966;-78
2023/02/13 00:10:18;;;;;;;;;;;;;;;3.19;93.01;101957.69;1084779;54;20504;-78
2023/02/13 00:11:19;;;;;;;;;;;;;;;3.16;92.32;101963.06;1084692;54;20520;-80
2023/02/13 00:12:23;;;;;;;;;;;;;;;3.15;92.50;101950.75;1085706;39;20427;-78
2023/02/13 00:13:24;;;;;;;;;;;;;;;3.18;92.39;101966.53;1085060;54;20463;-79
2023/02/13 00:14:27;;;;;;;;;;;;;;;3.09;93.02;101954.47;1085505;54;19973;-80
2023/02/13 00:15:29;;;;;;;;;;;;;;;3.08;93.13;101952.72;1085360;54;19953;-79
2023/02/13 00:16:32;;;;;;;;;;;;;;;3.09;93.17;101953.63;1085335;54;20470;-79
2023/02/13 00:17:33;;;;;;;;;;;;;;;3.11;93.15;101954.44;1085385;54;19939;-80
2023/02/13 00:18:38;;;;;;;;;;;;;;;3.06;93.44;101956.34;1085346;54;19957;-79
2023/02/13 00:19:39;;;;;;;;;;;;;;;3.07;93.55;101958.09;1085340;54;19950;-79
2023/02/13 00:20:43;;;;;;;;;;;;;;;3.06;93.63;101962.50;1085092;54;19946;-78
2023/02/13 00:21:47;;;;;;;;;;;;;;;3.09;93.55;101961.53;1085081;54;19946;-78
2023/02/13 00:22:50;;;;;;;;;;;;;;;3.16;92.92;101954.28;1085362;54;19939;-78
2023/02/13 00:23:51;;;;;;;;;;;;;;;3.17;92.65;101954.22;1085927;39;20353;-80
2023/02/13 00:24:55;;;;;;;;;;;;;;;3.16;92.51;101946.34;1085099;54;19958;-81
2023/02/13 00:25:56;;;;;;;;;;;;;;;3.15;92.93;101958.69;1085517;54;19957;-80
2023/02/13 00:27:00;;;;;;;;;;;;;;;3.15;92.72;101961.34;1085197;54;19946;-79
2023/02/13 00:28:01;;;;;;;;;;;;;;;3.14;92.63;101956.09;1085124;54;19946;-79
2023/02/13 00:29:05;;;;;;;;;;;;;;;3.18;92.11;101955.97;1085393;54;19934;-78
2023/02/13 00:30:06;;;;;;;;;;;;;;;3.14;92.38;101958.75;1085164;39;20471;-79
2023/02/13 00:31:11;;;;;;;;;;;;;;;3.08;92.72;101955.38;1085292;54;19947;-79
2023/02/13 00:32:13;;;;;;;;;;;;;;;3.06;93.24;101951.06;1085485;54;19958;-78
2023/02/13 00:33:17;;;;;;;;;;;;;;;2.99;93.97;101954.81;1085283;54;19954;-79
2023/02/13 00:34:18;;;;;;;;;;;;;;;3.00;94.55;101953.91;1085325;54;19970;-78
2023/02/13 00:35:21;;;;;;;;;;;;;;;3.00;94.00;101953.91;1085816;39;20369;-79
2023/02/13 00:36:23;;;;;;;;;;;;;;;2.97;94.50;101953.09;1085609;54;19950;-79
2023/02/13 00:37:29;;;;;;;;;;;;;;;3.04;94.29;101952.88;1085582;54;20449;-78
2023/02/13 00:38:30;;;;;;;;;;;;;;;2.97;94.43;101950.44;1085237;54;19954;-78
2023/02/13 00:39:34;;;;;;;;;;;;;;;2.96;94.55;101948.72;1085236;54;20197;-79
2023/02/13 00:40:35;;;;;;;;;;;;;;;2.95;94.57;101948.78;1085451;54;19954;-78
2023/02/13 00:41:39;;;;;;;;;;;;;;;2.96;94.81;101951.34;1084789;54;19954;-78
2023/02/13 00:42:40;;;;;;;;;;;;;;;3.00;94.64;101951.28;1084953;54;19958;-79
2023/02/13 00:43:44;;;;;;;;;;;;;;;3.01;94.43;101951.22;1085590;54;19946;-80
2023/02/13 00:44:45;;;;;;;;;;;;;;;2.95;94.79;101949.63;1085144;54;19946;-79
2023/02/13 00:45:49;;;;;;;;;;;;;;;2.92;95.33;101948.88;1085049;54;19970;-78
2023/02/13 00:46:52;;;;;;;;;;;;;;;2.93;95.13;101948.81;1085101;54;19951;-79
2023/02/13 00:47:53;;;;;;;;;;;;;;;2.95;95.14;101946.13;1085029;54;20528;-78
2023/02/13 00:48:57;;;;;;;;;;;;;;;2.92;95.16;101944.47;1085446;39;20422;-78
2023/02/13 00:49:58;;;;;;;;;;;;;;;2.93;95.50;101947.94;1085205;54;19950;-78
2023/02/13 00:51:02;;;;;;;;;;;;;;;2.94;95.18;101955.81;1085172;54;19947;-78
2023/02/13 00:52:03;;;;;;;;;;;;;;;2.95;94.97;101949.63;1084654;54;19946;-79
2023/02/13 00:53:10;;;;;;;;;;;;;;;2.92;95.24;101952.38;1084877;54;20449;-78
2023/02/13 00:54:11;;;;;;;;;;;;;;;2.93;95.37;101951.44;1085201;39;20420;-78
2023/02/13 00:55:14;;;;;;;;;;;;;;;2.96;94.94;101947.88;1085154;54;19974;-78
2023/02/13 00:56:16;;;;;;;;;;;;;;;2.93;95.02;101954.09;1085212;54;19973;-79
2023/02/13 00:57:19;;;;;;;;;;;;;;;2.91;95.03;101953.28;1084543;54;19947;-79
2023/02/13 00:58:22;;;;;;;;;;;;;;;2.92;95.10;101955.03;1085123;39;20353;-79
2023/02/13 00:59:25;;;;;;;;;;;;;;;2.88;95.32;101956.03;1085008;54;19951;-78
2023/02/13 01:00:27;;;;;;;;;;;;;;;2.90;95.71;101956.84;1084886;54;19947;-78
2023/02/13 01:01:30;;;;;;;;;;;;;;;2.96;94.84;101956.66;1086085;39;20344;-79
2023/02/13 01:02:35;;;;;;;;;;;;;;;3.01;94.42;101953.00;1084582;54;19950;-79
2023/02/13 01:03:38;;;;;;;;;;;;;;;2.98;94.54;101953.94;1084762;54;19974;-78
2023/02/13 01:04:39;;;;;;;;;;;;;;;2.95;94.37;101954.91;1084389;54;20346;-79
2023/02/13 01:05:43;;;;;;;;;;;;;;;2.91;94.76;101958.59;1085144;46;20481;-79
2023/02/13 01:06:44;;;;;;;;;;;;;;;2.87;94.89;101956.94;1084407;46;20697;-78
2023/02/13 01:07:48;;;;;;;;;;;;;;;2.87;95.00;101951.66;1084846;39;20384;-78
2023/02/13 01:08:52;;;;;;;;;;;;;;;2.92;94.93;101957.69;1084790;54;19947;-78
2023/02/13 01:09:56;;;;;;;;;;;;;;;2.95;94.74;101964.63;1084658;54;20496;-79
2023/02/13 01:10:57;;;;;;;;;;;;;;;3.01;94.20;101958.28;1084463;54;19974;-79
2023/02/13 01:12:01;;;;;;;;;;;;;;;2.95;93.89;101954.91;1086270;54;19943;-78
2023/02/13 01:13:02;;;;;;;;;;;;;;;2.94;94.01;101954.97;1085759;54;19970;-78
2023/02/13 01:14:06;;;;;;;;;;;;;;;2.96;93.66;101959.28;1085481;54;19958;-79
2023/02/13 01:15:08;;;;;;;;;;;;;;;2.86;93.87;101954.34;1085837;46;19950;-79
2023/02/13 01:16:14;;;;;;;;;;;;;;;2.84;94.22;101951.72;1086137;39;20347;-80
2023/02/13 01:17:18;;;;;;;;;;;;;;;2.76;94.84;101954.63;1085492;54;20006;-79
2023/02/13 01:18:19;;;;;;;;;;;;;;;2.78;94.88;101955.47;1084897;54;19977;-78
2023/02/13 01:19:23;;;;;;;;;;;;;;;2.79;94.93;101951.88;1084881;54;20026;-79
2023/02/13 01:20:24;;;;;;;;;;;;;;;2.77;94.91;101952.84;1084416;54;19947;-78
2023/02/13 01:21:28;;;;;;;;;;;;;;;2.69;95.35;101949.59;1084216;54;19954;-78
2023/02/13 01:22:29;;;;;;;;;;;;;;;2.65;95.88;101952.31;1084459;54;19947;-78
2023/02/13 01:23:33;;;;;;;;;;;;;;;2.67;96.09;101951.41;1084315;46;19966;-79
2023/02/13 01:24:37;;;;;;;;;;;;;;;2.64;96.07;101949.72;1084464;54;20484;-80
2023/02/13 01:25:41;;;;;;;;;;;;;;;2.66;96.09;101953.19;1084661;39;20322;-78
2023/02/13 01:26:45;;;;;;;;;;;;;;;2.70;96.09;101949.53;1084316;54;19954;-78
2023/02/13 01:27:46;;;;;;;;;;;;;;;2.65;95.93;101952.31;1084448;54;19962;-79
2023/02/13 01:28:53;;;;;;;;;;;;;;;2.60;96.35;101954.25;1084447;54;19950;-79
2023/02/13 01:29:54;;;;;;;;;;;;;;;2.62;96.28;101947.16;1084545;54;19950;-78
2023/02/13 01:30:58;;;;;;;;;;;;;;;2.64;95.86;101950.59;1084676;54;19946;-79
2023/02/13 01:32:02;;;;;;;;;;;;;;;2.59;96.22;101952.50;1084674;54;19942;-79
2023/02/13 01:33:06;;;;;;;;;;;;;;;2.61;96.53;101948.06;1084769;54;19950;-78
2023/02/13 01:34:07;;;;;;;;;;;;;;;2.65;96.08;101939.09;1084713;54;19947;-79
2023/02/13 01:35:12;;;;;;;;;;;;;;;2.62;96.26;101941.88;1084764;54;19950;-78
2023/02/13 01:36:13;;;;;;;;;;;;;;;2.66;96.40;101945.28;1084500;54;19946;-78
2023/02/13 01:37:16;;;;;;;;;;;;;;;2.68;96.09;101947.84;1084797;54;19962;-78
2023/02/13 01:38:18;;;;;;;;;;;;;;;2.68;95.48;101946.09;1084684;54;19939;-79
2023/02/13 01:39:21;;;;;;;;;;;;;;;2.69;95.43;101942.53;1084780;54;19946;-80
2023/02/13 01:40:28;;;;;;;;;;;;;;;2.77;95.25;101937.00;1084615;54;19946;-79
2023/02/13 01:41:32;;;;;;;;;;;;;;;2.72;94.54;101934.50;1085113;46;19981;-79
2023/02/13 01:42:34;;;;;;;;;;;;;;;2.69;95.06;101936.38;1084638;54;19951;-78
2023/02/13 01:43:48;;;;;;;;;;;;;;;2.67;95.04;101944.34;1085448;39;20340;-78
2023/02/13 01:44:50;;;;;;;;;;;;;;;2.63;94.94;101934.78;1085620;39;20345;-79
2023/02/13 01:45:57;;;;;;;;;;;;;;;2.59;95.45;101933.16;1084889;54;19947;-80
2023/02/13 01:46:58;;;;;;;;;;;;;;;2.57;95.60;101938.47;1084614;54;19946;-78
2023/02/13 01:48:04;;;;;;;;;;;;;;;2.59;95.70;101936.66;1084716;54;19950;-79
2023/02/13 01:49:17;;;;;;;;;;;;;;;2.65;95.59;101944.38;1085020;39;20350;-79
2023/02/13 01:50:21;;;;;;;;;;;;;;;2.65;95.09;101941.75;1084665;54;19938;-78
2023/02/13 01:51:27;;;;;;;;;;;;;;;2.71;95.09;101939.84;1084199;54;19946;-78
2023/02/13 01:52:28;;;;;;;;;;;;;;;2.76;94.76;101933.50;1084193;54;19939;-78
2023/02/13 01:53:35;;;;;;;;;;;;;;;2.77;93.86;101939.63;1084362;54;19999;-78
2023/02/13 01:54:36;;;;;;;;;;;;;;;2.78;93.81;101949.31;1084404;54;19951;-78
2023/02/13 01:55:45;;;;;;;;;;;;;;;2.79;93.45;101941.31;1083959;54;20026;-79
2023/02/13 01:56:49;;;;;;;;;;;;;;;2.76;93.00;101938.78;1084424;54;20440;-78
2023/02/13 01:57:56;;;;;;;;;;;;;;;2.68;93.05;101940.81;1084486;54;19950;-79
2023/02/13 01:58:59;;;;;;;;;;;;;;;2.57;93.40;101932.34;1084424;54;19953;-79
2023/02/13 02:00:05;;;;;;;;;;;;;;;2.56;94.04;101942.03;1084284;54;19946;-78
2023/02/13 02:01:07;;;;;;;;;;;;;;;2.58;94.17;101937.56;1084451;54;19947;-78
2023/02/13 02:02:11;;;;;;;;;;;;;;;2.57;93.75;101938.47;1084572;54;20037;-78
2023/02/13 02:03:14;;;;;;;;;;;;;;;2.55;94.05;101940.28;1084430;54;19968;-79
2023/02/13 02:04:21;;;;;;;;;;;;;;;2.53;94.25;101938.63;1084601;54;20451;-78
2023/02/13 02:05:24;;;;;;;;;;;;;;;2.45;94.20;101937.09;1084464;54;19947;-78
2023/02/13 02:06:30;;;;;;;;;;;;;;;2.45;94.62;101945.00;1084626;46;20058;-78
2023/02/13 02:07:32;;;;;;;;;;;;;;;2.48;94.68;101946.69;1084473;54;19954;-79
2023/02/13 02:08:36;;;;;;;;;;;;;;;2.50;94.55;101945.72;1083876;54;19954;-78
2023/02/13 02:09:39;;;;;;;;;;;;;;;2.50;94.51;101943.06;1084799;54;19942;-78
2023/02/13 02:10:45;;;;;;;;;;;;;;;2.50;94.04;101945.72;1084395;54;20033;-79
2023/02/13 02:11:50;;;;;;;;;;;;;;;2.58;94.32;101937.56;1084455;54;19946;-78
2023/02/13 02:12:57;;;;;;;;;;;;;;;2.64;93.98;101940.03;1084494;54;19951;-78
2023/02/13 02:14:00;;;;;;;;;;;;;;;2.64;93.40;101940.03;1084655;39;20358;-78
2023/02/13 02:15:05;;;;;;;;;;;;;;;2.68;92.91;101938.16;1084458;54;19950;-79
2023/02/13 02:16:06;;;;;;;;;;;;;;;2.72;91.98;101937.16;1084473;54;19965;-78
2023/02/13 02:17:10;;;;;;;;;;;;;;;2.77;91.80;101934.34;1084472;54;19945;-79
2023/02/13 02:18:13;;;;;;;;;;;;;;;2.75;91.45;101933.53;1085302;31;20472;-78
2023/02/13 02:19:24;;;;;;;;;;;;;;;2.77;91.08;101923.78;1085319;31;20453;-78
2023/02/13 02:20:31;;;;;;;;;;;;;;;2.72;90.48;101931.00;1085330;54;19950;-78
2023/02/13 02:21:46;;;;;;;;;;;;;;;2.77;91.14;101921.16;1086527;54;19950;-78
2023/02/13 02:22:59;;;;;;;;;;;;;;;2.76;90.45;101927.34;1085640;54;20400;-78
2023/02/13 02:24:14;;;;;;;;;;;;;;;2.82;90.94;101935.09;1085653;54;20060;-78
2023/02/13 02:25:30;;;;;;;;;;;;;;;2.87;90.82;101938.44;1085990;54;19946;-78
2023/02/13 02:26:51;;;;;;;;;;;;;;;2.88;90.54;101937.53;1086441;54;19954;-80
2023/02/13 02:28:00;;;;;;;;;;;;;;;2.89;90.14;101933.09;1086738;54;19953;-79
2023/02/13 02:29:16;;;;;;;;;;;;;;;2.92;89.91;101933.88;1086926;54;19951;-78
2023/02/13 02:30:26;;;;;;;;;;;;;;;2.91;89.46;101931.28;1087039;54;19954;-79
2023/02/13 02:31:56;;;;;;;;;;;;;;;2.88;88.76;101940.16;1087064;54;20006;-78
2023/02/13 02:33:05;;;;;;;;;;;;;;;2.86;88.65;101933.22;1087094;54;19946;-80
2023/02/13 02:34:15;;;;;;;;;;;;;;;2.92;89.03;101933.00;1087440;54;19957;-79
2023/02/13 02:35:22;;;;;;;;;;;;;;;2.92;88.74;101931.25;1087365;54;19950;-79
2023/02/13 02:36:35;;;;;;;;;;;;;;;2.90;87.93;101930.44;1088018;46;19943;-79
2023/02/13 02:37:43;;;;;;;;;;;;;;;2.69;87.77;101931.09;1087760;46;19973;-78
2023/02/13 02:38:56;;;;;;;;;;;;;;;2.65;88.87;101935.63;1087455;54;19938;-80
2023/02/13 02:40:03;;;;;;;;;;;;;;;2.59;88.89;101935.81;1087525;46;19939;-79
2023/02/13 02:41:09;;;;;;;;;;;;;;;2.60;89.83;101933.13;1089094;46;19946;-79
2023/02/13 02:42:17;;;;;;;;;;;;;;;2.68;90.10;101937.28;1088049;46;19962;-79
2023/02/13 02:43:27;;;;;;;;;;;;;;;2.75;89.63;101931.78;1088349;46;19947;-79
2023/02/13 02:44:31;;;;;;;;;;;;;;;2.74;88.82;101927.41;1087616;54;19923;-79
2023/02/13 02:45:39;;;;;;;;;;;;;;;2.78;89.03;101925.53;1087686;54;19946;-80
2023/02/13 02:49:57;;;;;;;;;;;;;;;2.82;89.17;101929.81;1087686;54;19942;-79
2023/02/13 02:50:55;;;;;;;;;;;;;;;2.83;87.78;101928.91;1087710;54;19950;-79
2023/02/13 02:52:02;;;;;;;;;;;;;;;2.80;88.08;101921.91;1087761;54;19965;-79
2023/02/13 02:53:15;;;;;;;;;;;;;;;2.72;87.96;101925.72;1087710;54;19942;-79
2023/02/13 02:55:42;;;;;;;;;;;;;;;2.72;87.82;101925.72;1087678;54;19966;-80
2023/02/13 02:56:44;;;;;;;;;;;;;;;2.72;88.58;101926.56;1087528;54;19927;-79
2023/02/13 03:06:56;;;;;;;;;;;;;;;2.57;88.43;101927.91;1087343;54;19986;-79
2023/02/13 03:07:57;;;;;;;;;;;;;;;2.57;89.09;101927.91;1088585;46;19947;-78
2023/02/13 03:15:27;;;;;;;;;;;;;;;2.65;87.67;101935.63;1088142;54;19962;-79
2023/02/13 03:23:09;;;;;;;;;;;;;;;2.57;88.24;101938.47;1088243;54;19946;-78
2023/02/13 03:24:16;;;;;;;;;;;;;;;2.58;88.00;101940.22;1088289;54;19934;-79
2023/02/13 03:25:36;;;;;;;;;;;;;;;2.53;87.66;101943.91;1088271;54;19950;-79
2023/02/13 03:26:48;;;;;;;;;;;;;;;2.51;88.12;101938.69;1088147;54;20709;-80
2023/02/13 03:30:42;;;;;;;;;;;;;;;2.45;89.17;101946.78;1088314;54;20035;-78
2023/02/13 03:31:48;;;;;;;;;;;;;;;2.43;88.35;101941.53;1088501;54;19957;-82
2023/02/13 03:32:57;;;;;;;;;;;;;;;2.41;88.58;101950.41;1088452;54;19942;-78
2023/02/13 03:34:01;;;;;;;;;;;;;;;2.42;88.59;101955.63;1088302;54;19934;-79
2023/02/13 03:38:09;;;;;;;;;;;;;;;2.46;88.66;101951.13;1088235;54;19931;-81
2023/02/13 03:39:19;;;;;;;;;;;;;;;2.46;88.31;101952.00;1088281;54;19966;-79
2023/02/13 03:40:26;;;;;;;;;;;;;;;2.42;88.28;101966.19;1088090;54;19949;-81
2023/02/13 03:41:29;;;;;;;;;;;;;;;2.27;88.46;101956.09;1088143;54;19931;-79
2023/02/13 03:42:44;;;;;;;;;;;;;;;2.20;89.42;101965.97;1088056;54;19941;-78
2023/02/13 03:43:52;;;;;;;;;;;;;;;2.10;89.89;101965.38;1087984;54;19943;-78
2023/02/13 03:46:15;;;;;;;;;;;;;;;2.08;90.53;101966.34;1088074;54;19950;-78
2023/02/13 03:47:18;;;;;;;;;;;;;;;2.15;91.28;101968.72;1088188;54;20018;-78
2023/02/13 03:51:04;;;;;;;;;;;;;;;2.12;90.80;101974.13;1088514;54;19943;-79
2023/02/13 03:52:13;;;;;;;;;;;;;;;2.07;90.47;101972.50;1088567;54;19942;-80
2023/02/13 03:53:18;;;;;;;;;;;;;;;2.02;90.42;101973.50;1088255;54;19927;-78
2023/02/13 03:59:41;;;;;;;;;;;;;;;2.00;90.02;101975.31;1088064;54;19943;-81
2023/02/13 04:00:44;;;;;;;;;;;;;;;1.92;90.28;101977.28;1087914;54;19942;-79
2023/02/13 04:01:51;;;;;;;;;;;;;;;1.86;90.52;101978.31;1089287;46;19942;-80
2023/02/13 04:02:56;;;;;;;;;;;;;;;1.84;90.66;101980.13;1088348;54;19966;-80
2023/02/13 04:04:05;;;;;;;;;;;;;;;1.81;91.01;101980.22;1088554;46;19934;-79
2023/02/13 04:05:10;;;;;;;;;;;;;;;1.74;91.34;101978.66;1089351;46;19954;-78
2023/02/13 04:06:29;;;;;;;;;;;;;;;1.76;91.45;101981.25;1088497;46;19942;-80
2023/02/13 04:08:55;;;;;;;;;;;;;;;1.65;92.26;101985.03;1088202;54;19987;-80
2023/02/13 04:09:57;;;;;;;;;;;;;;;1.65;92.25;101979.75;1088071;54;19967;-79
2023/02/13 04:11:07;;;;;;;;;;;;;;;1.67;92.52;101977.94;1090256;46;19986;-80
2023/02/13 04:12:13;;;;;;;;;;;;;;;1.67;91.94;101983.22;1088240;54;19927;-79
2023/02/13 04:13:23;;;;;;;;;;;;;;;1.66;91.85;101980.59;1089541;39;20793;-81
2023/02/13 04:14:27;;;;;;;;;;;;;;;1.71;91.70;101984.84;1088130;54;20006;-80
2023/02/13 04:15:35;;;;;;;;;;;;;;;1.77;91.40;101982.97;1088329;54;19926;-79
2023/02/13 04:16:39;;;;;;;;;;;;;;;1.69;90.32;101978.78;1088214;54;19934;-79
2023/02/13 04:17:51;;;;;;;;;;;;;;;1.69;90.89;101972.63;1095003;39;20710;-78
2023/02/13 04:18:54;;;;;;;;;;;;;;;1.76;90.94;101983.88;1088050;54;19975;-80
2023/02/13 04:20:01;;;;;;;;;;;;;;;1.74;89.99;101983.06;1090365;39;20650;-79
2023/02/13 04:21:03;;;;;;;;;;;;;;;1.70;90.00;101977.00;1088211;54;19955;-79
2023/02/13 04:22:14;;;;;;;;;;;;;;;1.70;89.87;101977.00;1088177;54;19943;-81
2023/02/13 04:23:16;;;;;;;;;;;;;;;1.70;89.98;101983.13;1088114;54;19943;-79
2023/02/13 04:24:23;;;;;;;;;;;;;;;1.72;90.04;101985.75;1088152;54;19942;-81
2023/02/13 04:25:26;;;;;;;;;;;;;;;1.74;89.68;101977.78;1088899;39;20758;-81
2023/02/13 04:26:34;;;;;;;;;;;;;;;1.75;89.57;101975.09;1088224;54;19934;-79
2023/02/13 04:27:36;;;;;;;;;;;;;;;1.79;89.97;101983.81;1087877;54;19951;-79
2023/02/13 04:28:41;;;;;;;;;;;;;;;1.68;88.76;101978.81;1087949;54;19949;-78
2023/02/13 04:29:43;;;;;;;;;;;;;;;1.56;89.49;101985.28;1087970;54;19994;-79
2023/02/13 04:30:49;;;;;;;;;;;;;;;1.53;89.74;101988.84;1089363;39;20475;-79
2023/02/13 04:31:51;;;;;;;;;;;;;;;1.60;90.17;101980.78;1088143;54;19987;-80
2023/02/13 04:32:55;;;;;;;;;;;;;;;1.58;89.65;101978.19;1088320;54;19942;-79
2023/02/13 04:33:57;;;;;;;;;;;;;;;1.55;89.58;101980.91;1088339;54;19929;-80
2023/02/13 04:35:02;;;;;;;;;;;;;;;1.56;89.82;101985.28;1088495;54;19926;-80
2023/02/13 04:36:04;;;;;;;;;;;;;;;1.57;89.68;101987.00;1088361;54;20697;-78
2023/02/13 04:37:29;;;;;;;;;;;;;;;1.55;89.54;101983.53;1088448;54;19990;-78
2023/02/13 04:38:31;;;;;;;;;;;;;;;1.57;89.37;101992.28;1090766;46;19986;-79
2023/02/13 04:39:50;;;;;;;;;;;;;;;1.60;89.32;101986.94;1091837;39;20584;-80
2023/02/13 04:40:52;;;;;;;;;;;;;;;1.60;89.04;101981.66;1088540;54;19935;-79
2023/02/13 04:41:57;;;;;;;;;;;;;;;1.62;89.09;101985.09;1088375;54;19945;-80
2023/02/13 04:42:59;;;;;;;;;;;;;;;1.66;89.13;101984.13;1090106;39;20613;-79
2023/02/13 04:44:06;;;;;;;;;;;;;;;1.71;88.98;101982.22;1088386;54;19943;-80
2023/02/13 04:45:08;;;;;;;;;;;;;;;1.70;88.13;101988.41;1088545;54;19927;-79
2023/02/13 04:46:12;;;;;;;;;;;;;;;1.68;88.15;101982.31;1088455;54;19982;-81
2023/02/13 04:47:14;;;;;;;;;;;;;;;1.68;87.79;101989.34;1088401;54;19990;-79
2023/02/13 04:48:18;;;;;;;;;;;;;;;1.70;87.81;101992.81;1088470;54;19927;-79
2023/02/13 04:49:22;;;;;;;;;;;;;;;1.68;87.51;101987.59;1088888;46;19943;-79
2023/02/13 04:50:28;;;;;;;;;;;;;;;1.65;87.67;101990.31;1089726;46;19949;-80
2023/02/13 04:51:29;;;;;;;;;;;;;;;1.61;87.63;101987.78;1089371;46;19944;-79
2023/02/13 04:52:33;;;;;;;;;;;;;;;1.55;87.68;101987.06;1088367;46;19958;-79
2023/02/13 04:53:34;;;;;;;;;;;;;;;1.58;88.14;101988.75;1088176;54;19954;-80
2023/02/13 04:54:53;;;;;;;;;;;;;;;1.55;87.69;101988.81;1088449;54;19927;-80
2023/02/13 04:55:54;;;;;;;;;;;;;;;1.52;87.50;101988.88;1088297;54;19966;-78
2023/02/13 04:56:59;;;;;;;;;;;;;;;1.48;87.43;101989.88;1088459;54;19926;-80
2023/02/13 04:58:01;;;;;;;;;;;;;;;1.46;87.53;101986.41;1088679;46;19927;-84
2023/02/13 04:59:13;;;;;;;;;;;;;;;1.40;87.60;101983.03;1090052;46;19938;-81
2023/02/13 05:00:15;;;;;;;;;;;;;;;1.34;88.30;101985.78;1088466;54;19934;-80
2023/02/13 05:01:19;;;;;;;;;;;;;;;1.33;88.04;101986.69;1088343;54;19935;-80
2023/02/13 05:02:25;;;;;;;;;;;;;;;1.32;88.40;101978.84;1088740;46;20768;-79
2023/02/13 05:03:28;;;;;;;;;;;;;;;1.20;88.39;101983.50;1088434;54;19998;-81
2023/02/13 05:04:56;;;;;;;;;;;;;;;1.14;89.10;101990.69;1088423;54;19999;-80
2023/02/13 05:05:57;;;;;;;;;;;;;;;1.14;89.42;101986.28;1089846;46;19927;-81
2023/02/13 05:07:16;;;;;;;;;;;;;;;1.12;89.82;101982.81;1088857;46;19946;-80
2023/02/13 05:08:17;;;;;;;;;;;;;;;1.12;90.25;101980.19;1088516;54;20015;-78
2023/02/13 05:09:22;;;;;;;;;;;;;;;1.13;90.08;101986.34;1088360;54;19939;-79
2023/02/13 05:10:26;;;;;;;;;;;;;;;1.23;90.25;101990.44;1088273;54;19978;-80
2023/02/13 05:11:31;;;;;;;;;;;;;;;1.22;89.06;101988.75;1088245;54;19998;-80
2023/02/13 05:12:32;;;;;;;;;;;;;;;1.23;89.95;101987.81;1088293;54;19967;-79
2023/02/13 05:13:46;;;;;;;;;;;;;;;1.26;89.81;101987.75;1088373;54;20517;-80
2023/02/13 05:14:48;;;;;;;;;;;;;;;1.26;89.56;101981.63;1088103;54;20729;-80
2023/02/13 05:15:53;;;;;;;;;;;;;;;1.31;90.10;101980.63;1090194;46;19943;-80
2023/02/13 05:16:55;;;;;;;;;;;;;;;1.29;89.69;101987.69;1088654;46;19943;-78
2023/02/13 05:17:59;;;;;;;;;;;;;;;1.30;89.75;101981.53;1088142;54;19931;-79
2023/02/13 05:19:00;;;;;;;;;;;;;;;1.33;89.68;101984.06;1088204;54;19927;-79
2023/02/13 05:20:20;;;;;;;;;;;;;;;1.22;89.30;101984.34;1089451;46;19943;-80
2023/02/13 05:24:11;;;;;;;;;;;;;;;1.26;90.55;101992.19;1088306;54;19986;-76
2023/02/13 05:25:15;;;;;;;;;;;;;;;1.32;90.31;101989.38;1088246;54;19964;-80
2023/02/13 05:26:33;;;;;;;;;;;;;;;1.29;89.63;101985.06;1088290;54;20662;-78
2023/02/13 05:27:34;;;;;;;;;;;;;;;1.32;89.71;101976.19;1088347;54;19965;-80
2023/02/13 05:30:00;;;;;;;;;;;;;;;1.19;88.52;101987.03;1088380;54;19942;-80
2023/02/13 05:31:01;;;;;;;;;;;;;;;1.16;89.20;101987.13;1088113;54;19966;-80
2023/02/13 05:32:05;;;;;;;;;;;;;;;1.16;89.48;101983.59;1088157;54;19933;-80
2023/02/13 05:33:06;;;;;;;;;;;;;;;1.16;88.94;101986.25;1088050;54;19950;-79
2023/02/13 05:34:14;;;;;;;;;;;;;;;1.15;89.21;101988.03;1088086;54;20635;-79
2023/02/13 05:35:24;;;;;;;;;;;;;;;1.19;89.32;101986.19;1088158;54;20676;-81
2023/02/13 05:36:35;;;;;;;;;;;;;;;1.20;88.97;101988.78;1088196;54;19950;-79
2023/02/13 05:37:45;;;;;;;;;;;;;;;1.23;88.74;101980.81;1088209;54;19949;-80
2023/02/13 05:38:52;;;;;;;;;;;;;;;1.29;88.56;101977.16;1091544;46;19945;-79
2023/02/13 05:40:01;;;;;;;;;;;;;;;1.33;88.45;101977.94;1087991;46;19953;-78
2023/02/13 05:41:12;;;;;;;;;;;;;;;1.31;87.64;101978.00;1087842;54;19933;-80
2023/02/13 05:42:24;;;;;;;;;;;;;;;1.34;87.85;101975.25;1088241;54;19931;-79
2023/02/13 05:43:27;;;;;;;;;;;;;;;1.43;88.22;101978.56;1088179;54;19942;-77
2023/02/13 05:44:33;;;;;;;;;;;;;;;1.47;87.71;101975.81;1088108;54;20661;-78
2023/02/13 05:45:36;;;;;;;;;;;;;;;1.48;87.06;101974.06;1088250;54;19948;-78
2023/02/13 05:46:42;;;;;;;;;;;;;;;1.51;87.13;101976.63;1088290;54;19979;-80
2023/02/13 05:47:46;;;;;;;;;;;;;;;1.52;86.68;101988.88;1088518;54;19934;-80
2023/02/13 05:49:02;;;;;;;;;;;;;;;1.48;86.11;101981.97;1092881;46;19985;-79
2023/02/13 05:50:06;;;;;;;;;;;;;;;1.50;86.50;101985.44;1088310;54;19965;-80
2023/02/13 05:51:22;;;;;;;;;;;;;;;1.47;86.29;101985.50;1088484;54;19934;-80
2023/02/13 05:52:24;;;;;;;;;;;;;;;1.40;86.31;101980.41;1088380;54;19931;-80
2023/02/13 05:53:34;;;;;;;;;;;;;;;1.40;86.59;101983.03;1088394;54;19963;-79
2023/02/13 05:54:38;;;;;;;;;;;;;;;1.38;86.37;101992.75;1088021;54;19949;-78
2023/02/13 05:55:43;;;;;;;;;;;;;;;1.42;87.03;101987.41;1088096;54;20582;-79
2023/02/13 05:56:51;;;;;;;;;;;;;;;1.44;86.54;101990.84;1088057;54;19943;-80
2023/02/13 05:57:59;;;;;;;;;;;;;;;1.51;87.14;101992.44;1088216;54;19943;-79
2023/02/13 05:59:08;;;;;;;;;;;;;;;1.53;86.75;101988.84;1088076;54;19942;-79
2023/02/13 06:00:11;;;;;;;;;;;;;;;1.55;86.43;101994.06;1088155;54;19938;-80
2023/02/13 06:01:23;;;;;;;;;;;;;;;1.57;86.76;101989.63;1090609;46;19942;-78
2023/02/13 06:02:24;;;;;;;;;;;;;;;1.57;86.24;101989.63;1088272;54;19950;-79
2023/02/13 06:03:29;;;;;;;;;;;;;;;1.59;86.37;101987.84;1088171;54;19945;-79
2023/02/13 06:04:31;;;;;;;;;;;;;;;1.62;86.33;101990.38;1088366;46;19938;-79
2023/02/13 06:05:36;;;;;;;;;;;;;;;1.61;85.81;101982.50;1091753;46;19982;-81
2023/02/13 06:06:39;;;;;;;;;;;;;;;1.63;85.95;101986.84;1088442;54;19935;-79
2023/02/13 06:07:41;;;;;;;;;;;;;;;1.62;85.96;101985.09;1088356;54;19943;-79
2023/02/13 06:08:45;;;;;;;;;;;;;;;1.59;85.85;101982.56;1092049;46;20245;-78
2023/02/13 06:09:51;;;;;;;;;;;;;;;1.59;86.11;101990.47;1090516;39;20156;-79
2023/02/13 06:10:52;;;;;;;;;;;;;;;1.58;86.00;101983.47;1090772;46;19942;-78
2023/02/13 06:11:56;;;;;;;;;;;;;;;1.55;85.77;101980.91;1088318;46;19939;-78
2023/02/13 06:13:00;;;;;;;;;;;;;;;1.57;86.02;101992.28;1088359;54;19938;-81
2023/02/13 06:14:05;;;;;;;;;;;;;;;1.61;86.31;101986.00;1088165;54;19942;-79
2023/02/13 06:15:07;;;;;;;;;;;;;;;1.61;85.86;101983.38;1087917;54;19950;-80
2023/02/13 06:16:14;;;;;;;;;;;;;;;1.62;85.78;101989.53;1087532;54;19951;-78
2023/02/13 06:17:15;;;;;;;;;;;;;;;1.64;85.82;101985.94;1088039;54;19943;-80
2023/02/13 06:18:29;;;;;;;;;;;;;;;1.67;85.72;101985.88;1088255;54;19926;-80
2023/02/13 06:19:30;;;;;;;;;;;;;;;1.67;85.50;101985.88;1088364;54;19950;-80
2023/02/13 06:20:51;;;;;;;;;;;;;;;1.68;85.50;101979.69;1088379;54;19927;-80
2023/02/13 06:21:55;;;;;;;;;;;;;;;1.64;84.66;101982.44;1088111;54;19976;-80
2023/02/13 06:22:59;;;;;;;;;;;;;;;1.67;85.39;101979.72;1088082;54;19959;-80
2023/02/13 06:24:03;;;;;;;;;;;;;;;1.69;85.29;101991.09;1088164;54;19939;-80
2023/02/13 06:25:12;;;;;;;;;;;;;;;1.61;84.69;101991.28;1088280;54;19966;-79
2023/02/13 06:26:17;;;;;;;;;;;;;;;1.56;84.57;101986.13;1088384;54;19947;-79
2023/02/13 06:27:19;;;;;;;;;;;;;;;1.52;84.96;101988.88;1089875;39;20652;-81
2023/02/13 06:28:27;;;;;;;;;;;;;;;1.52;84.98;101991.50;1088468;54;19931;-79